createdAt,value
2016-09-02T00:00:38.776Z,1002.08
2016-09-02T00:01:50.336Z,1002.08
2016-09-02T00:03:01.915Z,1002.1
2016-09-02T00:04:13.472Z,1002.01
2016-09-02T00:05:25.740Z,1002.07
2016-09-02T00:06:37.995Z,1002.07
2016-09-02T00:07:49.545Z,1002.08
2016-09-02T00:09:01.828Z,1002.06
2016-09-02T00:10:14.087Z,1002.08
2016-09-02T00:11:25.672Z,1002.12
2016-09-02T00:12:37.952Z,1002.1
2016-09-02T00:13:50.223Z,1002.09
2016-09-02T00:15:02.488Z,1002.1
2016-09-02T00:16:14.754Z,1002.06
2016-09-02T00:17:27.010Z,1002.03
2016-09-02T00:18:38.577Z,1002.03
2016-09-02T00:19:50.844Z,1002.01
2016-09-02T00:21:02.420Z,1001.98
2016-09-02T00:22:13.312Z,1002.03
2016-09-02T00:23:24.886Z,1002.01
2016-09-02T00:24:37.156Z,1002.05
2016-09-02T00:25:48.719Z,1002.04
2016-09-02T00:27:00.985Z,1002.04
2016-09-02T00:28:11.147Z,1002.06
2016-09-02T00:29:22.704Z,1002.07
2016-09-02T00:30:34.258Z,1002.08
2016-09-02T00:31:46.531Z,1002.09
2016-09-02T00:32:57.384Z,1002.05
2016-09-02T00:34:09.141Z,1002
2016-09-02T00:35:20.711Z,1002.01
2016-09-02T00:36:32.988Z,1002.04
2016-09-02T00:37:45.250Z,1002.01
2016-09-02T00:38:57.513Z,1002.01
2016-09-02T00:40:09.061Z,1001.99
2016-09-02T00:41:20.731Z,1001.99
2016-09-02T00:42:32.994Z,1001.97
2016-09-02T00:43:44.564Z,1001.96
2016-09-02T00:44:56.128Z,1001.99
2016-09-02T00:46:08.467Z,1001.96
2016-09-02T00:47:20.729Z,1001.99
2016-09-02T00:48:31.591Z,1001.98
2016-09-02T00:49:42.467Z,1001.93
2016-09-02T00:50:54.730Z,1001.94
2016-09-02T00:52:05.606Z,1001.94
2016-09-02T00:53:17.173Z,1001.94
2016-09-02T00:54:28.030Z,1001.96
2016-09-02T00:55:40.294Z,1001.97
2016-09-02T00:56:51.853Z,1001.94
2016-09-02T00:58:02.017Z,1001.94
2016-09-02T00:59:12.883Z,1001.93
2016-09-02T01:00:24.264Z,1001.95
2016-09-02T01:01:36.527Z,1001.92
2016-09-02T01:02:47.376Z,1001.94
2016-09-02T01:03:58.940Z,1001.93
2016-09-02T01:05:11.197Z,1001.9
2016-09-02T01:06:22.782Z,1001.91
2016-09-02T01:07:34.344Z,1001.92
2016-09-02T01:08:45.889Z,1001.89
2016-09-02T01:09:58.149Z,1001.85
2016-09-02T01:11:09.423Z,1001.85
2016-09-02T01:12:20.267Z,1001.84
2016-09-02T01:13:31.142Z,1001.85
2016-09-02T01:14:42.701Z,1001.82
2016-09-02T01:15:54.956Z,1001.81
2016-09-02T01:17:07.220Z,1001.82
2016-09-02T01:18:18.791Z,1001.81
2016-09-02T01:19:31.049Z,1001.84
2016-09-02T01:20:43.305Z,1001.84
2016-09-02T01:21:54.161Z,1001.82
2016-09-02T01:23:05.723Z,1001.84
2016-09-02T01:24:17.985Z,1001.81
2016-09-02T01:25:30.235Z,1001.8
2016-09-02T01:26:40.400Z,1001.83
2016-09-02T01:27:52.650Z,1001.79
2016-09-02T01:29:04.213Z,1001.75
2016-09-02T01:30:16.469Z,1001.72
2016-09-02T01:31:27.336Z,1001.73
2016-09-02T01:32:39.598Z,1001.72
2016-09-02T01:33:51.159Z,1001.73
2016-09-02T01:35:03.502Z,1001.69
2016-09-02T01:36:14.368Z,1001.69
2016-09-02T01:37:26.635Z,1001.76
2016-09-02T01:38:38.190Z,1001.73
2016-09-02T01:39:50.456Z,1001.77
2016-09-02T01:41:02.734Z,1001.79
2016-09-02T01:42:14.992Z,1001.8
2016-09-02T01:43:27.277Z,1001.81
2016-09-02T01:44:39.561Z,1001.79
2016-09-02T01:45:51.826Z,1001.8
2016-09-02T01:47:04.088Z,1001.77
2016-09-02T01:48:16.350Z,1001.79
2016-09-02T01:49:27.947Z,1001.78
2016-09-02T01:50:38.833Z,1001.77
2016-09-02T01:51:49.686Z,1001.75
2016-09-02T01:53:01.254Z,1001.76
2016-09-02T01:54:13.518Z,1001.79
2016-09-02T01:55:25.777Z,1001.77
2016-09-02T01:56:35.934Z,1001.7
2016-09-02T01:57:47.509Z,1001.73
2016-09-02T01:58:58.361Z,1001.77
2016-09-02T02:00:09.924Z,1001.75
2016-09-02T02:01:21.497Z,1001.73
2016-09-02T02:02:33.072Z,1001.74
2016-09-02T02:03:44.619Z,1001.7
2016-09-02T02:04:56.165Z,1001.69
2016-09-02T02:06:07.727Z,1001.66
2016-09-02T02:07:17.893Z,1001.69
2016-09-02T02:08:29.453Z,1001.66
2016-09-02T02:09:41.723Z,1001.66
2016-09-02T02:10:53.300Z,1001.63
2016-09-02T02:12:04.150Z,1001.6
2016-09-02T02:13:14.998Z,1001.59
2016-09-02T02:14:27.258Z,1001.58
2016-09-02T02:15:39.531Z,1001.61
2016-09-02T02:16:50.383Z,1001.57
2016-09-02T02:18:01.952Z,1001.56
2016-09-02T02:19:14.215Z,1001.55
2016-09-02T02:20:26.472Z,1001.59
2016-09-02T02:21:38.737Z,1001.56
2016-09-02T02:22:50.297Z,1001.56
2016-09-02T02:24:02.562Z,1001.55
2016-09-02T02:25:12.723Z,1001.57
2016-09-02T02:26:24.295Z,1001.54
2016-09-02T02:27:36.560Z,1001.58
2016-09-02T02:28:47.415Z,1001.56
2016-09-02T02:29:59.673Z,1001.55
2016-09-02T02:31:10.551Z,1001.52
2016-09-02T02:32:22.818Z,1001.5
2016-09-02T02:33:34.369Z,1001.47
2016-09-02T02:34:45.920Z,1001.52
2016-09-02T02:35:57.485Z,1001.5
2016-09-02T02:37:09.761Z,1001.54
2016-09-02T02:38:22.015Z,1001.54
2016-09-02T02:39:32.861Z,1001.54
2016-09-02T02:40:43.724Z,1001.55
2016-09-02T02:41:55.980Z,1001.57
2016-09-02T02:43:08.248Z,1001.57
2016-09-02T02:44:20.504Z,1001.58
2016-09-02T02:45:31.368Z,1001.56
2016-09-02T02:46:43.623Z,1001.51
2016-09-02T02:47:54.475Z,1001.56
2016-09-02T02:49:06.752Z,1001.54
2016-09-02T02:50:19.020Z,1001.57
2016-09-02T02:51:30.569Z,1001.53
2016-09-02T02:52:42.124Z,1001.53
2016-09-02T02:53:53.679Z,1001.51
2016-09-02T02:55:05.939Z,1001.58
2016-09-02T02:56:18.197Z,1001.57
2016-09-02T02:57:29.054Z,1001.57
2016-09-02T02:58:41.317Z,1001.57
2016-09-02T02:59:53.578Z,1001.59
2016-09-02T03:32:04.259Z,1001.62
2016-09-02T03:33:15.107Z,1001.67
2016-09-02T03:34:26.657Z,1001.67
2016-09-02T03:35:38.716Z,1001.71
2016-09-02T03:36:49.588Z,1001.72
2016-09-02T03:38:01.855Z,1001.69
2016-09-02T03:39:13.395Z,1001.72
2016-09-02T03:40:25.654Z,1001.7
2016-09-02T03:41:37.929Z,1001.7
2016-09-02T03:42:49.485Z,1001.76
2016-09-02T03:44:00.353Z,1001.75
2016-09-02T03:45:11.909Z,1001.74
2016-09-02T03:46:23.507Z,1001.72
2016-09-02T03:47:35.058Z,1001.72
2016-09-02T03:48:47.327Z,1001.73
2016-09-02T03:49:59.591Z,1001.72
2016-09-02T03:51:12.392Z,1001.68
2016-09-02T03:52:22.553Z,1001.71
2016-09-02T03:53:34.110Z,1001.71
2016-09-02T03:54:45.680Z,1001.67
2016-09-02T03:55:57.240Z,1001.69
2016-09-02T03:57:08.803Z,1001.71
2016-09-02T03:58:19.649Z,1001.7
2016-09-02T03:59:31.206Z,1001.72
2016-09-02T04:00:43.464Z,1001.73
2016-09-02T04:01:54.341Z,1001.76
2016-09-02T04:03:05.205Z,1001.76
2016-09-02T04:04:17.477Z,1001.76
2016-09-02T04:05:29.731Z,1001.76
2016-09-02T04:06:42.001Z,1001.75
2016-09-02T04:07:53.560Z,1001.76
2016-09-02T04:09:05.106Z,1001.77
2016-09-02T04:10:17.367Z,1001.81
2016-09-02T04:11:28.939Z,1001.78
2016-09-02T04:12:41.197Z,1001.78
2016-09-02T04:13:52.764Z,1001.8
2016-09-02T04:15:05.023Z,1001.73
2016-09-02T04:16:17.592Z,1001.75
2016-09-02T04:17:29.861Z,1001.78
2016-09-02T04:18:42.129Z,1001.76
2016-09-02T04:19:54.400Z,1001.77
2016-09-02T04:21:05.972Z,1001.78
2016-09-02T04:22:18.233Z,1001.78
2016-09-02T04:23:29.802Z,1001.84
2016-09-02T04:24:41.377Z,1001.82
2016-09-02T04:25:52.239Z,1001.89
2016-09-02T04:27:04.496Z,1001.85
2016-09-02T04:28:16.051Z,1001.85
2016-09-02T04:29:28.316Z,1001.86
2016-09-02T04:30:40.603Z,1001.85
2016-09-02T04:31:52.879Z,1001.85
2016-09-02T04:33:04.470Z,1001.85
2016-09-02T04:34:16.737Z,1001.87
2016-09-02T04:35:29.013Z,1001.89
2016-09-02T04:36:41.492Z,1001.89
2016-09-02T04:37:53.046Z,1001.93
2016-09-02T04:39:04.596Z,1001.9
2016-09-02T04:40:16.151Z,1001.89
2016-09-02T04:41:27.728Z,1001.9
2016-09-02T04:42:39.989Z,1001.93
2016-09-02T04:43:51.541Z,1001.94
2016-09-02T04:45:03.106Z,1001.93
2016-09-02T04:46:15.369Z,1001.98
2016-09-02T04:47:26.220Z,1002.03
2016-09-02T04:48:38.473Z,1002.04
2016-09-02T04:49:50.730Z,1002.07
2016-09-02T04:51:02.306Z,1002.06
2016-09-02T04:52:14.577Z,1002.1
2016-09-02T04:53:26.144Z,1002
2016-09-02T04:54:38.412Z,1002.03
2016-09-02T04:55:50.683Z,1001.97
2016-09-02T04:57:02.261Z,1001.93
2016-09-02T04:58:14.753Z,1001.98
2016-09-02T04:59:26.342Z,1001.95
2016-09-02T05:00:37.906Z,1001.95
2016-09-02T05:01:48.767Z,1001.94
2016-09-02T05:03:01.035Z,1001.96
2016-09-02T05:04:12.591Z,1001.94
2016-09-02T05:05:24.167Z,1001.92
2016-09-02T05:06:35.729Z,1001.93
2016-09-02T05:07:47.995Z,1001.91
2016-09-02T05:09:00.243Z,1001.94
2016-09-02T05:10:12.505Z,1001.93
2016-09-02T05:11:24.050Z,1001.95
2016-09-02T05:12:35.622Z,1001.96
2016-09-02T05:13:47.895Z,1001.98
2016-09-02T05:14:58.743Z,1002
2016-09-02T05:16:11.005Z,1002.05
2016-09-02T05:17:22.563Z,1002.03
2016-09-02T05:18:34.132Z,1002.05
2016-09-02T05:19:46.400Z,1002.04
2016-09-02T05:20:58.671Z,1002.18
2016-09-02T05:22:10.922Z,1002.18
2016-09-02T05:23:21.074Z,1002.1
2016-09-02T05:24:33.326Z,1002.08
2016-09-02T05:25:44.178Z,1002.06
2016-09-02T05:26:56.437Z,1002.11
2016-09-02T05:28:08.007Z,1002.11
2016-09-02T05:29:19.573Z,1002.13
2016-09-02T05:30:31.829Z,1002.12
2016-09-02T05:31:43.390Z,1002.14
2016-09-02T05:32:55.645Z,1002.19
2016-09-02T05:34:07.213Z,1002.25
2016-09-02T05:35:18.771Z,1002.23
2016-09-02T05:36:31.984Z,1002.19
2016-09-02T05:37:44.251Z,1002.18
2016-09-02T05:38:55.804Z,1002.19
2016-09-02T05:40:08.313Z,1002.1
2016-09-02T05:41:19.887Z,1002.09
2016-09-02T05:42:32.163Z,1002.06
2016-09-02T05:43:44.455Z,1002.06
2016-09-02T05:44:56.072Z,1002.09
2016-09-02T05:46:07.442Z,1002.13
2016-09-02T05:47:18.295Z,1002.09
2016-09-02T05:48:29.852Z,1002.13
2016-09-02T05:49:41.414Z,1002.17
2016-09-02T05:50:52.965Z,1002.21
2016-09-02T05:52:04.533Z,1002.15
2016-09-02T05:53:16.806Z,1002.11
2016-09-02T05:54:29.069Z,1002.04
2016-09-02T05:55:41.341Z,1002.08
2016-09-02T05:56:51.514Z,1002.1
2016-09-02T05:58:02.390Z,1002.12
2016-09-02T05:59:14.037Z,1002.12
2016-09-02T06:00:24.894Z,1002.14
2016-09-02T06:01:37.164Z,1002.04
2016-09-02T06:02:48.732Z,1002.02
2016-09-02T06:03:59.621Z,1002.04
2016-09-02T06:05:10.509Z,1002.08
2016-09-02T06:06:23.373Z,1002.16
2016-09-02T06:07:35.651Z,1002.16
2016-09-02T06:08:46.527Z,1002.11
2016-09-02T06:09:58.814Z,1002.14
2016-09-02T06:11:10.593Z,1002.13
2016-09-02T06:12:21.457Z,1002.15
2016-09-02T06:13:32.334Z,1002.16
2016-09-02T06:14:43.889Z,1002.14
2016-09-02T06:15:56.141Z,1002.18
2016-09-02T06:17:08.409Z,1002.15
2016-09-02T06:18:18.584Z,1002.14
2016-09-02T06:19:30.853Z,1002.17
2016-09-02T06:20:41.732Z,1002.2
2016-09-02T06:21:54.007Z,1002.22
2016-09-02T06:23:05.586Z,1002.2
2016-09-02T06:24:17.175Z,1002.21
2016-09-02T06:25:28.730Z,1002.18
2016-09-02T06:26:40.998Z,1002.2
2016-09-02T06:27:53.270Z,1002.23
2016-09-02T06:29:05.556Z,1002.23
2016-09-02T06:30:17.130Z,1002.22
2016-09-02T06:31:27.985Z,1002.27
2016-09-02T06:32:38.146Z,1002.27
2016-09-02T06:33:50.415Z,1002.31
2016-09-02T06:35:02.257Z,1002.33
2016-09-02T06:36:13.823Z,1002.34
2016-09-02T06:37:24.688Z,1002.38
2016-09-02T06:38:36.250Z,1002.39
2016-09-02T06:39:48.518Z,1002.37
2016-09-02T06:41:00.785Z,1002.38
2016-09-02T06:42:13.061Z,1002.39
2016-09-02T06:43:23.231Z,1002.42
2016-09-02T06:44:34.803Z,1002.42
2016-09-02T06:45:45.684Z,1002.4
2016-09-02T06:46:57.952Z,1002.44
2016-09-02T06:48:10.233Z,1002.4
2016-09-02T06:49:21.821Z,1002.39
2016-09-02T06:50:34.083Z,1002.42
2016-09-02T06:51:45.660Z,1002.46
2016-09-02T06:52:56.521Z,1002.48
2016-09-02T06:54:07.408Z,1002.51
2016-09-02T06:55:18.975Z,1002.57
2016-09-02T06:56:29.843Z,1002.54
2016-09-02T06:57:39.999Z,1002.54
2016-09-02T06:58:49.471Z,1002.5
2016-09-02T07:00:00.333Z,1002.54
2016-09-02T07:01:12.159Z,1002.59
2016-09-02T07:02:23.734Z,1002.63
2016-09-02T07:03:35.302Z,1002.66
2016-09-02T07:04:47.578Z,1002.65
2016-09-02T07:05:59.137Z,1002.68
2016-09-02T07:07:10.714Z,1002.73
2016-09-02T07:08:22.378Z,1002.67
2016-09-02T07:09:32.546Z,1002.62
2016-09-02T07:10:44.802Z,1002.64
2016-09-02T07:11:55.658Z,1002.64
2016-09-02T07:13:07.226Z,1002.61
2016-09-02T07:14:19.502Z,1002.59
2016-09-02T07:15:29.673Z,1002.6
2016-09-02T07:16:41.242Z,1002.6
2016-09-02T07:17:52.815Z,1002.64
2016-09-02T07:19:04.391Z,1002.67
2016-09-02T07:20:16.657Z,1002.66
2016-09-02T07:21:27.538Z,1002.7
2016-09-02T07:22:39.846Z,1002.58
2016-09-02T07:23:52.112Z,1002.6
2016-09-02T07:25:03.715Z,1002.65
2016-09-02T07:26:15.276Z,1002.57
2016-09-02T07:27:26.847Z,1002.57
2016-09-02T07:28:39.115Z,1002.66
2016-09-02T07:29:50.697Z,1002.67
2016-09-02T07:31:02.260Z,1002.67
2016-09-02T07:32:13.114Z,1002.63
2016-09-02T07:33:23.991Z,1002.65
2016-09-02T07:34:34.867Z,1002.68
2016-09-02T07:35:46.446Z,1002.67
2016-09-02T07:36:58.017Z,1002.73
2016-09-02T07:38:09.579Z,1002.71
2016-09-02T07:39:20.469Z,1002.75
2016-09-02T07:40:32.733Z,1002.79
2016-09-02T07:41:43.599Z,1002.75
2016-09-02T07:42:55.165Z,1002.77
2016-09-02T07:44:06.032Z,1002.77
2016-09-02T07:45:16.190Z,1002.75
2016-09-02T07:46:27.766Z,1002.76
2016-09-02T07:47:39.363Z,1002.75
2016-09-02T07:48:51.640Z,1002.76
2016-09-02T07:50:03.221Z,1002.81
2016-09-02T07:51:15.052Z,1002.75
2016-09-02T07:52:27.320Z,1002.7
2016-09-02T07:53:39.607Z,1002.74
2016-09-02T07:54:51.864Z,1002.71
2016-09-02T07:56:02.727Z,1002.71
2016-09-02T07:57:14.326Z,1002.73
2016-09-02T07:58:25.885Z,1002.7
2016-09-02T07:59:38.157Z,1002.68
2016-09-02T08:00:48.326Z,1002.69
2016-09-02T08:01:59.885Z,1002.72
2016-09-02T08:03:11.446Z,1002.72
2016-09-02T08:04:23.012Z,1002.72
2016-09-02T08:05:34.585Z,1002.74
2016-09-02T08:06:46.167Z,1002.7
2016-09-02T08:07:58.441Z,1002.73
2016-09-02T08:09:10.000Z,1002.76
2016-09-02T08:10:20.862Z,1002.71
2016-09-02T08:11:32.489Z,1002.73
2016-09-02T08:12:43.358Z,1002.8
2016-09-02T08:13:55.625Z,1002.76
2016-09-02T08:15:07.184Z,1002.75
2016-09-02T08:16:18.767Z,1002.75
2016-09-02T08:17:30.353Z,1002.79
2016-09-02T08:18:41.239Z,1002.77
2016-09-02T08:19:52.117Z,1002.75
2016-09-02T08:21:03.674Z,1002.79
2016-09-02T08:22:15.288Z,1002.79
2016-09-02T08:23:26.864Z,1002.8
2016-09-02T08:24:37.031Z,1002.83
2016-09-02T08:25:47.899Z,1002.82
2016-09-02T08:26:58.768Z,1002.78
2016-09-02T08:28:10.333Z,1002.77
2016-09-02T08:29:21.200Z,1002.79
2016-09-02T08:30:32.751Z,1002.76
2016-09-02T08:31:43.613Z,1002.79
2016-09-02T08:32:55.199Z,1002.77
2016-09-02T08:34:06.787Z,1002.78
2016-09-02T08:35:18.377Z,1002.8
2016-09-02T08:36:30.769Z,1002.79
2016-09-02T08:37:42.377Z,1002.8
2016-09-02T08:38:53.240Z,1002.82
2016-09-02T08:40:04.111Z,1002.83
2016-09-02T08:41:15.685Z,1002.82
2016-09-02T08:42:26.584Z,1002.82
2016-09-02T08:43:37.465Z,1002.81
2016-09-02T08:44:49.753Z,1002.77
2016-09-02T08:46:00.604Z,1002.81
2016-09-02T08:47:11.466Z,1002.79
2016-09-02T08:48:23.732Z,1002.81
2016-09-02T08:49:36.033Z,1002.78
2016-09-02T08:50:47.605Z,1002.79
2016-09-02T08:51:59.169Z,1002.78
2016-09-02T08:53:10.776Z,1002.77
2016-09-02T08:54:23.056Z,1002.81
2016-09-02T08:55:33.929Z,1002.83
2016-09-02T08:56:46.194Z,1002.85
2016-09-02T08:57:57.749Z,1002.79
2016-09-02T08:59:09.426Z,1002.86
2016-09-02T09:00:20.994Z,1002.85
2016-09-02T09:01:33.272Z,1002.86
2016-09-02T09:02:44.136Z,1002.86
2016-09-02T09:03:55.704Z,1002.86
2016-09-02T09:05:07.377Z,1002.85
2016-09-02T09:06:18.951Z,1002.8
2016-09-02T09:07:30.506Z,1002.8
2016-09-02T09:08:41.374Z,1002.82
2016-09-02T09:09:52.934Z,1002.76
2016-09-02T09:11:03.795Z,1002.77
2016-09-02T09:12:16.067Z,1002.77
2016-09-02T09:13:27.639Z,1002.78
2016-09-02T09:14:39.217Z,1002.77
2016-09-02T09:15:50.774Z,1002.76
2016-09-02T09:17:03.077Z,1002.76
2016-09-02T09:18:13.266Z,1002.73
2016-09-02T09:19:25.548Z,1002.66
2016-09-02T09:20:37.813Z,1002.69
2016-09-02T09:21:48.007Z,1002.65
2016-09-02T09:22:58.880Z,1002.7
2016-09-02T09:24:10.465Z,1002.73
2016-09-02T09:25:22.033Z,1002.73
2016-09-02T09:26:33.610Z,1002.71
2016-09-02T09:27:44.494Z,1002.73
2016-09-02T09:28:55.350Z,1002.7
2016-09-02T09:30:07.634Z,1002.73
2016-09-02T09:31:19.250Z,1002.73
2016-09-02T09:32:30.143Z,1002.69
2016-09-02T09:33:41.705Z,1002.68
2016-09-02T09:34:52.567Z,1002.68
2016-09-02T09:36:04.159Z,1002.65
2016-09-02T09:37:15.027Z,1002.62
2016-09-02T09:38:27.302Z,1002.62
2016-09-02T09:39:38.180Z,1002.59
2016-09-02T09:40:49.772Z,1002.61
2016-09-02T09:42:00.651Z,1002.59
2016-09-02T09:43:12.939Z,1002.58
2016-09-02T09:44:24.505Z,1002.57
2016-09-02T09:45:35.377Z,1002.6
2016-09-02T09:46:46.969Z,1002.59
2016-09-02T09:47:58.531Z,1002.57
2016-09-02T09:49:10.792Z,1002.55
2016-09-02T09:50:22.386Z,1002.51
2016-09-02T09:51:32.541Z,1002.52
2016-09-02T09:52:43.412Z,1002.46
2016-09-02T09:53:53.581Z,1002.46
2016-09-02T09:55:05.151Z,1002.43
2016-09-02T09:56:16.953Z,1002.44
2016-09-02T09:57:28.507Z,1002.43
2016-09-02T09:58:40.087Z,1002.41
2016-09-02T09:59:51.654Z,1002.38
2016-09-02T10:01:01.816Z,1002.36
2016-09-02T10:02:13.392Z,1002.32
2016-09-02T10:03:24.970Z,1002.33
2016-09-02T10:04:36.531Z,1002.34
2016-09-02T10:05:46.693Z,1002.35
2016-09-02T10:06:58.260Z,1002.36
2016-09-02T10:08:09.832Z,1002.32
2016-09-02T10:09:20.697Z,1002.34
2016-09-02T10:10:31.560Z,1002.34
2016-09-02T10:11:43.123Z,1002.32
2016-09-02T10:12:54.015Z,1002.35
2016-09-02T10:14:06.294Z,1002.34
2016-09-02T10:15:17.863Z,1002.34
2016-09-02T10:16:29.019Z,1002.37
2016-09-02T10:17:41.311Z,1002.3
2016-09-02T10:18:53.577Z,1002.28
2016-09-02T10:20:05.855Z,1002.28
2016-09-02T10:21:18.141Z,1002.27
2016-09-02T10:22:29.018Z,1002.28
2016-09-02T10:23:40.611Z,1002.3
2016-09-02T10:24:52.185Z,1002.26
2016-09-02T10:26:04.471Z,1002.21
2016-09-02T10:27:16.749Z,1002.26
2016-09-02T10:28:29.036Z,1002.21
2016-09-02T10:29:40.618Z,1002.23
2016-09-02T10:30:52.897Z,1002.21
2016-09-02T10:32:04.496Z,1002.19
2016-09-02T10:33:14.673Z,1002.16
2016-09-02T10:34:25.527Z,1002.16
2016-09-02T10:35:36.411Z,1002.12
2016-09-02T10:36:48.702Z,1002.1
2016-09-02T10:37:59.575Z,1002.1
2016-09-02T10:39:09.739Z,1002.11
2016-09-02T10:40:22.010Z,1002.08
2016-09-02T10:41:32.223Z,1002.13
2016-09-02T10:42:43.797Z,1002.1
2016-09-02T10:43:55.364Z,1002.06
2016-09-02T10:45:06.236Z,1002.07
2016-09-02T10:46:17.802Z,1002.11
2016-09-02T10:47:29.396Z,1002.09
2016-09-02T10:48:39.567Z,1002.04
2016-09-02T10:49:51.147Z,1002.02
2016-09-02T10:51:02.720Z,1002.02
2016-09-02T10:52:14.312Z,1001.96
2016-09-02T10:53:26.602Z,1002.01
2016-09-02T10:54:38.171Z,1001.99
2016-09-02T10:55:49.805Z,1001.96
2016-09-02T10:57:01.433Z,1001.99
2016-09-02T10:58:13.003Z,1001.95
2016-09-02T10:59:24.581Z,1001.99
2016-09-02T11:00:36.153Z,1001.97
2016-09-02T11:01:48.430Z,1001.96
2016-09-02T11:02:59.295Z,1001.95
2016-09-02T11:04:10.180Z,1001.93
2016-09-02T11:05:21.776Z,1001.93
2016-09-02T11:06:32.645Z,1001.93
2016-09-02T11:07:44.924Z,1001.96
2016-09-02T11:08:55.805Z,1001.91
2016-09-02T11:10:07.382Z,1001.88
2016-09-02T11:11:18.940Z,1001.89
2016-09-02T11:12:31.220Z,1001.92
2016-09-02T11:13:43.488Z,1001.85
2016-09-02T11:14:55.766Z,1001.83
2016-09-02T11:16:08.784Z,1001.83
2016-09-02T11:17:21.049Z,1001.8
2016-09-02T11:18:31.922Z,1001.84
2016-09-02T11:19:43.497Z,1001.83
2016-09-02T11:20:54.389Z,1001.83
2016-09-02T11:22:06.655Z,1001.83
2016-09-02T11:23:18.228Z,1001.79
2016-09-02T11:24:29.099Z,1001.7
2016-09-02T11:25:41.367Z,1001.76
2016-09-02T11:26:52.939Z,1001.72
2016-09-02T11:28:04.532Z,1001.69
2016-09-02T11:29:16.799Z,1001.66
2016-09-02T11:30:28.385Z,1001.67
2016-09-02T11:31:39.962Z,1001.66
2016-09-02T11:32:52.248Z,1001.63
2016-09-02T11:34:04.534Z,1001.63
2016-09-02T11:35:15.410Z,1001.62
2016-09-02T11:36:27.733Z,1001.56
2016-09-02T11:37:39.295Z,1001.63
2016-09-02T11:38:50.893Z,1001.6
2016-09-02T11:40:03.183Z,1001.56
2016-09-02T11:41:14.055Z,1001.61
2016-09-02T11:42:25.636Z,1001.57
2016-09-02T11:43:36.523Z,1001.6
2016-09-02T11:44:47.403Z,1001.6
2016-09-02T11:45:59.673Z,1001.59
2016-09-02T11:47:11.254Z,1001.55
2016-09-02T11:48:22.829Z,1001.56
2016-09-02T11:49:32.997Z,1001.57
2016-09-02T11:50:45.270Z,1001.58
2016-09-02T11:51:56.155Z,1001.56
2016-09-02T11:53:08.445Z,1001.55
2016-09-02T11:54:20.020Z,1001.51
2016-09-02T11:55:31.600Z,1001.5
2016-09-02T11:56:43.167Z,1001.53
2016-09-02T11:57:54.753Z,1001.58
2016-09-02T11:59:06.360Z,1001.55
2016-09-02T12:00:18.638Z,1001.58
2016-09-02T12:01:30.221Z,1001.51
2016-09-02T12:02:41.796Z,1001.45
2016-09-02T12:03:53.366Z,1001.42
2016-09-02T12:05:04.262Z,1001.42
2016-09-02T12:06:15.905Z,1001.43
2016-09-02T12:07:26.778Z,1001.4
2016-09-02T12:08:37.655Z,1001.38
2016-09-02T12:09:49.921Z,1001.42
2016-09-02T12:11:00.809Z,1001.42
2016-09-02T12:12:12.374Z,1001.39
2016-09-02T12:13:23.262Z,1001.43
2016-09-02T12:14:34.129Z,1001.36
2016-09-02T12:15:46.414Z,1001.37
2016-09-02T12:16:58.692Z,1001.46
2016-09-02T12:18:09.570Z,1001.36
2016-09-02T12:19:20.433Z,1001.38
2016-09-02T12:20:32.006Z,1001.36
2016-09-02T12:21:42.874Z,1001.38
2016-09-02T12:22:54.461Z,1001.38
2016-09-02T12:24:06.759Z,1001.4
2016-09-02T12:25:19.106Z,1001.31
2016-09-02T12:26:30.677Z,1001.29
2016-09-02T12:27:41.549Z,1001.32
2016-09-02T12:28:53.835Z,1001.29
2016-09-02T12:30:05.406Z,1001.3
2016-09-02T12:31:16.274Z,1001.3
2016-09-02T12:32:26.451Z,1001.33
2016-09-02T12:33:37.354Z,1001.33
2016-09-02T12:34:48.914Z,1001.32
2016-09-02T12:35:59.777Z,1001.23
2016-09-02T12:37:11.374Z,1001.19
2016-09-02T12:38:23.672Z,1001.19
2016-09-02T12:39:35.243Z,1001.16
2016-09-02T12:40:45.404Z,1001.11
2016-09-02T12:41:56.978Z,1001.11
2016-09-02T12:43:08.551Z,1001.07
2016-09-02T12:44:20.849Z,1001.08
2016-09-02T12:45:31.733Z,1001.06
2016-09-02T12:46:43.547Z,1001.01
2016-09-02T12:47:55.127Z,1001
2016-09-02T12:49:06.730Z,1001.02
2016-09-02T12:50:19.011Z,1001.02
2016-09-02T12:51:30.585Z,1001.02
2016-09-02T12:52:42.189Z,1000.98
2016-09-02T12:53:54.457Z,1000.98
2016-09-02T12:55:04.633Z,1000.95
2016-09-02T12:56:15.799Z,1000.93
2016-09-02T12:57:28.068Z,1000.93
2016-09-02T12:58:39.648Z,1000.92
2016-09-02T12:59:51.964Z,1000.89
2016-09-02T13:01:03.532Z,1000.91
2016-09-02T13:02:14.413Z,1000.9
2016-09-02T13:03:23.901Z,1000.89
2016-09-02T13:04:36.177Z,1000.9
2016-09-02T13:05:47.755Z,1000.87
2016-09-02T13:06:58.645Z,1000.87
2016-09-02T13:08:09.517Z,1000.89
2016-09-02T13:09:21.098Z,1000.85
2016-09-02T13:10:32.672Z,1000.94
2016-09-02T13:11:44.245Z,1000.91
2016-09-02T13:12:55.835Z,1000.93
2016-09-02T13:14:06.731Z,1000.96
2016-09-02T13:15:19.223Z,1001
2016-09-02T13:16:30.813Z,1001.02
2016-09-02T13:17:43.081Z,1000.97
2016-09-02T13:18:54.659Z,1001.07
2016-09-02T13:20:06.933Z,1001.05
2016-09-02T13:21:18.692Z,1001
2016-09-02T13:22:30.962Z,1001.05
2016-09-02T13:23:43.241Z,1001.08
2016-09-02T13:24:54.814Z,1001.09
2016-09-02T13:26:05.698Z,1001.14
2016-09-02T13:27:17.957Z,1001.11
2016-09-02T13:28:30.252Z,1001.09
2016-09-02T13:29:40.419Z,1001.17
2016-09-02T13:30:52.005Z,1001.17
2016-09-02T13:32:03.574Z,1001.21
2016-09-02T13:33:15.839Z,1001.24
2016-09-02T13:34:26.017Z,1001.28
2016-09-02T13:35:38.292Z,1001.3
2016-09-02T13:36:49.200Z,1001.31
2016-09-02T13:38:01.483Z,1001.29
2016-09-02T13:39:13.058Z,1001.37
2016-09-02T13:40:24.630Z,1001.31
2016-09-02T13:41:35.491Z,1001.32
2016-09-02T13:42:45.663Z,1001.32
2016-09-02T13:43:56.535Z,1001.39
2016-09-02T13:45:08.151Z,1001.46
2016-09-02T13:46:20.434Z,1001.52
2016-09-02T13:47:32.705Z,1001.45
2016-09-02T13:48:44.268Z,1001.49
2016-09-02T13:49:56.571Z,1001.55
2016-09-02T13:51:08.160Z,1001.59
2016-09-02T13:52:20.458Z,1001.68
2016-09-02T13:53:30.617Z,1001.67
2016-09-02T13:54:42.197Z,1001.71
2016-09-02T13:55:53.075Z,1001.68
2016-09-02T13:57:04.891Z,1001.72
2016-09-02T13:58:15.755Z,1001.67
2016-09-02T13:59:28.013Z,1001.71
2016-09-02T14:00:38.875Z,1001.64
2016-09-02T14:01:51.142Z,1001.72
2016-09-02T14:03:02.715Z,1001.7
2016-09-02T14:04:15.786Z,1001.67
2016-09-02T14:05:28.061Z,1001.6
2016-09-02T14:06:37.551Z,1001.53
2016-09-02T14:07:49.134Z,1001.5
2016-09-02T14:09:00.713Z,1001.48
2016-09-02T14:10:12.359Z,1001.41
2016-09-02T14:11:23.917Z,1001.38
2016-09-02T14:12:36.182Z,1001.38
2016-09-02T14:13:47.054Z,1001.35
2016-09-02T14:14:59.321Z,1001.34
2016-09-02T14:16:10.104Z,1001.27
2016-09-02T14:17:21.680Z,1001.25
2016-09-02T14:18:33.246Z,1001.22
2016-09-02T14:19:44.823Z,1001.2
2016-09-02T14:20:57.087Z,1001.18
2016-09-02T14:22:08.677Z,1001.16
2016-09-02T14:23:19.544Z,1001.19
2016-09-02T14:24:31.109Z,1001.18
2016-09-02T14:25:41.967Z,1001.17
2016-09-02T14:26:52.125Z,1001.16
2016-09-02T14:28:03.931Z,1001.13
2016-09-02T14:29:15.508Z,1001.09
2016-09-02T14:30:27.087Z,1001.08
2016-09-02T14:31:37.958Z,1001.07
2016-09-02T14:32:49.539Z,1001.05
2016-09-02T14:34:01.124Z,1001.06
2016-09-02T14:35:12.692Z,1001.08
2016-09-02T14:36:24.831Z,1001.08
2016-09-02T14:37:37.119Z,1001.11
2016-09-02T14:38:48.681Z,1001.09
2016-09-02T14:40:00.272Z,1001.12
2016-09-02T14:41:10.576Z,1001.06
2016-09-02T14:42:22.850Z,1001.05
2016-09-02T14:43:33.720Z,1001.08
2016-09-02T14:44:45.280Z,1001.06
2016-09-02T14:45:56.854Z,1001.06
2016-09-02T14:47:07.704Z,1001.08
2016-09-02T14:48:19.286Z,1001.06
2016-09-02T14:49:30.147Z,1001.02
2016-09-02T14:50:41.013Z,1001.03
2016-09-02T14:51:52.637Z,1001.04
2016-09-02T14:53:04.209Z,1001.02
2016-09-02T14:54:15.088Z,1000.99
2016-09-02T14:55:26.651Z,1000.94
2016-09-02T14:56:37.524Z,1000.99
2016-09-02T14:57:49.115Z,1000.97
2016-09-02T14:59:00.690Z,1000.98
2016-09-02T15:00:12.969Z,1000.97